sensor_id;sensor_type;location;lat;lon;timestamp;P1;durP1;ratioP1;P2;durP2;ratioP2
64339;SDS011;63709;53.258;-8.814;2023-04-03T00:02:14;4.10;;;2.38;;
64339;SDS011;63709;53.258;-8.814;2023-04-03T00:04:41;5.38;;;2.70;;
64339;SDS011;63709;53.258;-8.814;2023-04-03T00:07:08;4.18;;;2.50;;
64339;SDS011;63709;53.258;-8.814;2023-04-03T00:09:34;5.63;;;2.50;;
64339;SDS011;63709;53.258;-8.814;2023-04-03T00:12:01;6.40;;;2.28;;
64339;SDS011;63709;53.258;-8.814;2023-04-03T00:14:26;6.22;;;2.45;;
64339;SDS011;63709;53.258;-8.814;2023-04-03T00:16:52;3.97;;;2.35;;
64339;SDS011;63709;53.258;-8.814;2023-04-03T00:19:18;5.85;;;2.30;;
64339;SDS011;63709;53.258;-8.814;2023-04-03T00:24:16;6.75;;;2.40;;
64339;SDS011;63709;53.258;-8.814;2023-04-03T00:26:42;6.15;;;2.85;;
64339;SDS011;63709;53.258;-8.814;2023-04-03T00:29:07;4.15;;;2.28;;
64339;SDS011;63709;53.258;-8.814;2023-04-03T00:31:32;4.53;;;2.58;;
64339;SDS011;63709;53.258;-8.814;2023-04-03T00:33:59;7.38;;;2.78;;
64339;SDS011;63709;53.258;-8.814;2023-04-03T00:36:25;4.13;;;2.33;;
64339;SDS011;63709;53.258;-8.814;2023-04-03T00:41:17;6.25;;;2.55;;
64339;SDS011;63709;53.258;-8.814;2023-04-03T00:43:43;6.65;;;2.10;;
64339;SDS011;63709;53.258;-8.814;2023-04-03T00:46:09;5.30;;;2.10;;
64339;SDS011;63709;53.258;-8.814;2023-04-03T00:48:40;9.60;;;2.45;;
64339;SDS011;63709;53.258;-8.814;2023-04-03T00:51:09;5.22;;;2.08;;
64339;SDS011;63709;53.258;-8.814;2023-04-03T00:53:43;5.22;;;2.40;;
64339;SDS011;63709;53.258;-8.814;2023-04-03T00:56:13;6.07;;;2.40;;
64339;SDS011;63709;53.258;-8.814;2023-04-03T00:58:59;6.05;;;2.45;;
64339;SDS011;63709;53.258;-8.814;2023-04-03T01:01:29;4.68;;;2.50;;
64339;SDS011;63709;53.258;-8.814;2023-04-03T01:04:00;6.38;;;2.47;;
64339;SDS011;63709;53.258;-8.814;2023-04-03T01:06:28;6.65;;;2.95;;
64339;SDS011;63709;53.258;-8.814;2023-04-03T01:08:59;4.93;;;2.50;;
64339;SDS011;63709;53.258;-8.814;2023-04-03T01:11:25;5.57;;;2.05;;
64339;SDS011;63709;53.258;-8.814;2023-04-03T01:13:52;3.55;;;2.30;;
64339;SDS011;63709;53.258;-8.814;2023-04-03T01:18:44;8.25;;;2.80;;
64339;SDS011;63709;53.258;-8.814;2023-04-03T01:26:46;7.75;;;2.50;;
64339;SDS011;63709;53.258;-8.814;2023-04-03T01:29:12;6.70;;;2.80;;
64339;SDS011;63709;53.258;-8.814;2023-04-03T01:34:14;9.02;;;3.10;;
64339;SDS011;63709;53.258;-8.814;2023-04-03T01:36:40;5.68;;;3.03;;
64339;SDS011;63709;53.258;-8.814;2023-04-03T01:41:32;5.53;;;2.75;;
64339;SDS011;63709;53.258;-8.814;2023-04-03T01:43:58;7.18;;;2.90;;
64339;SDS011;63709;53.258;-8.814;2023-04-03T01:46:23;5.88;;;2.70;;
64339;SDS011;63709;53.258;-8.814;2023-04-03T01:48:49;4.30;;;2.42;;
64339;SDS011;63709;53.258;-8.814;2023-04-03T01:51:16;5.32;;;2.85;;
64339;SDS011;63709;53.258;-8.814;2023-04-03T01:53:42;7.97;;;2.78;;
64339;SDS011;63709;53.258;-8.814;2023-04-03T01:56:08;12.70;;;3.30;;
64339;SDS011;63709;53.258;-8.814;2023-04-03T01:58:34;5.10;;;2.95;;
64339;SDS011;63709;53.258;-8.814;2023-04-03T02:01:01;9.52;;;3.33;;
64339;SDS011;63709;53.258;-8.814;2023-04-03T02:03:27;6.97;;;3.15;;
64339;SDS011;63709;53.258;-8.814;2023-04-03T02:05:53;8.27;;;3.40;;
64339;SDS011;63709;53.258;-8.814;2023-04-03T02:08:19;6.15;;;3.50;;
64339;SDS011;63709;53.258;-8.814;2023-04-03T02:10:48;8.18;;;3.33;;
64339;SDS011;63709;53.258;-8.814;2023-04-03T02:13:15;7.28;;;3.40;;
64339;SDS011;63709;53.258;-8.814;2023-04-03T02:18:06;10.10;;;3.38;;
64339;SDS011;63709;53.258;-8.814;2023-04-03T02:20:33;7.72;;;3.30;;
64339;SDS011;63709;53.258;-8.814;2023-04-03T02:23:00;12.90;;;3.92;;
64339;SDS011;63709;53.258;-8.814;2023-04-03T02:25:26;9.63;;;4.00;;
64339;SDS011;63709;53.258;-8.814;2023-04-03T02:27:52;10.43;;;3.83;;
64339;SDS011;63709;53.258;-8.814;2023-04-03T02:30:20;10.50;;;3.90;;
64339;SDS011;63709;53.258;-8.814;2023-04-03T02:32:45;10.68;;;4.45;;
64339;SDS011;63709;53.258;-8.814;2023-04-03T02:35:11;9.35;;;3.83;;
64339;SDS011;63709;53.258;-8.814;2023-04-03T02:37:37;10.50;;;4.45;;
64339;SDS011;63709;53.258;-8.814;2023-04-03T02:40:03;11.02;;;5.20;;
64339;SDS011;63709;53.258;-8.814;2023-04-03T02:42:30;9.60;;;4.32;;
64339;SDS011;63709;53.258;-8.814;2023-04-03T02:44:57;8.60;;;4.63;;
64339;SDS011;63709;53.258;-8.814;2023-04-03T02:47:23;8.80;;;4.53;;
64339;SDS011;63709;53.258;-8.814;2023-04-03T02:49:49;14.40;;;4.90;;
64339;SDS011;63709;53.258;-8.814;2023-04-03T02:52:15;9.60;;;4.95;;
64339;SDS011;63709;53.258;-8.814;2023-04-03T02:54:41;14.13;;;4.97;;
64339;SDS011;63709;53.258;-8.814;2023-04-03T02:57:08;8.13;;;4.90;;
64339;SDS011;63709;53.258;-8.814;2023-04-03T02:59:35;11.02;;;5.30;;
64339;SDS011;63709;53.258;-8.814;2023-04-03T03:02:07;10.23;;;4.50;;
64339;SDS011;63709;53.258;-8.814;2023-04-03T03:04:33;13.32;;;4.57;;
64339;SDS011;63709;53.258;-8.814;2023-04-03T03:09:25;11.65;;;4.75;;
64339;SDS011;63709;53.258;-8.814;2023-04-03T03:11:51;9.55;;;4.88;;
64339;SDS011;63709;53.258;-8.814;2023-04-03T03:14:17;11.02;;;4.97;;
64339;SDS011;63709;53.258;-8.814;2023-04-03T03:16:43;13.93;;;4.63;;
64339;SDS011;63709;53.258;-8.814;2023-04-03T03:19:11;13.02;;;5.30;;
64339;SDS011;63709;53.258;-8.814;2023-04-03T03:21:37;11.75;;;5.05;;
64339;SDS011;63709;53.258;-8.814;2023-04-03T03:26:32;9.73;;;4.45;;
64339;SDS011;63709;53.258;-8.814;2023-04-03T03:28:58;8.40;;;4.53;;
64339;SDS011;63709;53.258;-8.814;2023-04-03T03:31:24;11.35;;;5.53;;
64339;SDS011;63709;53.258;-8.814;2023-04-03T03:33:50;11.73;;;5.00;;
64339;SDS011;63709;53.258;-8.814;2023-04-03T03:36:15;14.48;;;5.55;;
64339;SDS011;63709;53.258;-8.814;2023-04-03T03:38:41;11.68;;;5.05;;
64339;SDS011;63709;53.258;-8.814;2023-04-03T03:41:07;10.05;;;5.00;;
64339;SDS011;63709;53.258;-8.814;2023-04-03T03:43:33;12.15;;;4.82;;
64339;SDS011;63709;53.258;-8.814;2023-04-03T03:46:01;13.40;;;4.90;;
64339;SDS011;63709;53.258;-8.814;2023-04-03T03:48:27;10.93;;;5.00;;
64339;SDS011;63709;53.258;-8.814;2023-04-03T03:50:53;13.23;;;5.60;;
64339;SDS011;63709;53.258;-8.814;2023-04-03T03:53:18;15.18;;;4.53;;
64339;SDS011;63709;53.258;-8.814;2023-04-03T03:55:44;11.63;;;5.18;;
64339;SDS011;63709;53.258;-8.814;2023-04-03T03:58:10;10.82;;;4.80;;
64339;SDS011;63709;53.258;-8.814;2023-04-03T04:00:37;12.10;;;4.55;;
64339;SDS011;63709;53.258;-8.814;2023-04-03T04:03:03;15.50;;;5.15;;
64339;SDS011;63709;53.258;-8.814;2023-04-03T04:05:30;9.07;;;4.90;;
64339;SDS011;63709;53.258;-8.814;2023-04-03T04:10:23;11.07;;;3.95;;
64339;SDS011;63709;53.258;-8.814;2023-04-03T04:12:51;8.75;;;4.20;;
64339;SDS011;63709;53.258;-8.814;2023-04-03T04:15:18;10.48;;;3.92;;
64339;SDS011;63709;53.258;-8.814;2023-04-03T04:17:43;12.70;;;3.95;;
64339;SDS011;63709;53.258;-8.814;2023-04-03T04:20:10;12.50;;;4.75;;
64339;SDS011;63709;53.258;-8.814;2023-04-03T04:22:37;11.13;;;3.92;;
64339;SDS011;63709;53.258;-8.814;2023-04-03T04:25:04;9.45;;;3.97;;
64339;SDS011;63709;53.258;-8.814;2023-04-03T04:27:31;12.00;;;3.90;;
64339;SDS011;63709;53.258;-8.814;2023-04-03T04:29:56;8.85;;;3.53;;
64339;SDS011;63709;53.258;-8.814;2023-04-03T04:32:23;8.77;;;3.47;;
64339;SDS011;63709;53.258;-8.814;2023-04-03T04:34:50;11.50;;;3.70;;
64339;SDS011;63709;53.258;-8.814;2023-04-03T04:37:15;6.85;;;3.53;;
64339;SDS011;63709;53.258;-8.814;2023-04-03T04:39:40;8.95;;;4.05;;
64339;SDS011;63709;53.258;-8.814;2023-04-03T04:42:06;7.33;;;3.00;;
64339;SDS011;63709;53.258;-8.814;2023-04-03T04:44:32;12.38;;;3.60;;
64339;SDS011;63709;53.258;-8.814;2023-04-03T04:46:58;8.25;;;3.60;;
64339;SDS011;63709;53.258;-8.814;2023-04-03T04:49:24;10.52;;;3.65;;
64339;SDS011;63709;53.258;-8.814;2023-04-03T04:51:49;11.25;;;3.38;;
64339;SDS011;63709;53.258;-8.814;2023-04-03T04:54:15;13.15;;;3.67;;
64339;SDS011;63709;53.258;-8.814;2023-04-03T04:56:41;7.80;;;3.15;;
64339;SDS011;63709;53.258;-8.814;2023-04-03T04:59:06;9.43;;;3.00;;
64339;SDS011;63709;53.258;-8.814;2023-04-03T05:01:32;5.28;;;2.67;;
64339;SDS011;63709;53.258;-8.814;2023-04-03T05:03:57;10.10;;;3.05;;
64339;SDS011;63709;53.258;-8.814;2023-04-03T05:06:24;6.43;;;3.13;;
64339;SDS011;63709;53.258;-8.814;2023-04-03T05:08:49;5.90;;;2.35;;
64339;SDS011;63709;53.258;-8.814;2023-04-03T05:11:17;8.45;;;2.13;;
64339;SDS011;63709;53.258;-8.814;2023-04-03T05:13:43;3.92;;;1.90;;
64339;SDS011;63709;53.258;-8.814;2023-04-03T05:16:08;5.80;;;2.25;;
64339;SDS011;63709;53.258;-8.814;2023-04-03T05:18:34;6.05;;;2.20;;
64339;SDS011;63709;53.258;-8.814;2023-04-03T05:21:00;6.78;;;1.80;;
64339;SDS011;63709;53.258;-8.814;2023-04-03T05:23:26;7.20;;;2.00;;
64339;SDS011;63709;53.258;-8.814;2023-04-03T05:25:51;6.10;;;1.63;;
64339;SDS011;63709;53.258;-8.814;2023-04-03T05:28:18;5.93;;;2.47;;
64339;SDS011;63709;53.258;-8.814;2023-04-03T05:30:43;5.50;;;2.08;;
64339;SDS011;63709;53.258;-8.814;2023-04-03T05:33:09;5.18;;;1.90;;
64339;SDS011;63709;53.258;-8.814;2023-04-03T05:35:36;3.17;;;1.60;;
64339;SDS011;63709;53.258;-8.814;2023-04-03T05:38:05;5.70;;;1.75;;
64339;SDS011;63709;53.258;-8.814;2023-04-03T05:40:31;7.43;;;1.80;;
64339;SDS011;63709;53.258;-8.814;2023-04-03T05:42:57;6.70;;;2.10;;
64339;SDS011;63709;53.258;-8.814;2023-04-03T05:45:23;3.40;;;2.00;;
64339;SDS011;63709;53.258;-8.814;2023-04-03T05:47:49;4.57;;;1.83;;
64339;SDS011;63709;53.258;-8.814;2023-04-03T05:50:15;4.75;;;2.10;;
64339;SDS011;63709;53.258;-8.814;2023-04-03T05:52:42;3.78;;;2.05;;
64339;SDS011;63709;53.258;-8.814;2023-04-03T05:55:10;5.50;;;1.85;;
64339;SDS011;63709;53.258;-8.814;2023-04-03T05:57:36;4.00;;;1.73;;
64339;SDS011;63709;53.258;-8.814;2023-04-03T06:00:04;4.20;;;2.20;;
64339;SDS011;63709;53.258;-8.814;2023-04-03T06:02:31;6.70;;;1.90;;
64339;SDS011;63709;53.258;-8.814;2023-04-03T06:04:57;5.60;;;2.05;;
64339;SDS011;63709;53.258;-8.814;2023-04-03T06:07:24;7.50;;;2.50;;
64339;SDS011;63709;53.258;-8.814;2023-04-03T06:09:54;5.70;;;1.85;;
64339;SDS011;63709;53.258;-8.814;2023-04-03T06:12:21;5.13;;;1.90;;
64339;SDS011;63709;53.258;-8.814;2023-04-03T06:14:47;9.35;;;2.50;;
64339;SDS011;63709;53.258;-8.814;2023-04-03T06:17:14;4.47;;;2.17;;
64339;SDS011;63709;53.258;-8.814;2023-04-03T06:19:40;4.82;;;1.90;;
64339;SDS011;63709;53.258;-8.814;2023-04-03T06:22:06;9.55;;;1.95;;
64339;SDS011;63709;53.258;-8.814;2023-04-03T06:24:33;4.80;;;1.70;;
64339;SDS011;63709;53.258;-8.814;2023-04-03T06:26:59;6.35;;;1.98;;
64339;SDS011;63709;53.258;-8.814;2023-04-03T06:29:24;5.60;;;2.28;;
64339;SDS011;63709;53.258;-8.814;2023-04-03T06:31:51;6.68;;;2.10;;
64339;SDS011;63709;53.258;-8.814;2023-04-03T06:34:17;9.50;;;1.95;;
64339;SDS011;63709;53.258;-8.814;2023-04-03T06:36:43;7.20;;;2.00;;
64339;SDS011;63709;53.258;-8.814;2023-04-03T06:39:16;4.22;;;1.95;;
64339;SDS011;63709;53.258;-8.814;2023-04-03T06:41:46;6.32;;;1.98;;
64339;SDS011;63709;53.258;-8.814;2023-04-03T06:44:12;7.80;;;2.58;;
64339;SDS011;63709;53.258;-8.814;2023-04-03T06:46:42;7.05;;;1.95;;
64339;SDS011;63709;53.258;-8.814;2023-04-03T06:49:09;4.82;;;2.15;;
64339;SDS011;63709;53.258;-8.814;2023-04-03T06:54:01;6.18;;;1.90;;
64339;SDS011;63709;53.258;-8.814;2023-04-03T06:56:28;4.90;;;1.90;;
64339;SDS011;63709;53.258;-8.814;2023-04-03T06:58:54;4.35;;;2.03;;
64339;SDS011;63709;53.258;-8.814;2023-04-03T07:01:23;5.40;;;2.67;;
64339;SDS011;63709;53.258;-8.814;2023-04-03T07:03:53;5.50;;;2.25;;
64339;SDS011;63709;53.258;-8.814;2023-04-03T07:06:20;4.68;;;1.88;;
64339;SDS011;63709;53.258;-8.814;2023-04-03T07:08:46;3.88;;;1.52;;
64339;SDS011;63709;53.258;-8.814;2023-04-03T07:11:15;6.93;;;1.90;;
64339;SDS011;63709;53.258;-8.814;2023-04-03T07:13:41;9.88;;;2.05;;
64339;SDS011;63709;53.258;-8.814;2023-04-03T07:16:07;7.18;;;2.05;;
64339;SDS011;63709;53.258;-8.814;2023-04-03T07:18:35;7.53;;;2.58;;
64339;SDS011;63709;53.258;-8.814;2023-04-03T07:21:01;5.68;;;1.77;;
64339;SDS011;63709;53.258;-8.814;2023-04-03T07:23:28;10.68;;;5.25;;
64339;SDS011;63709;53.258;-8.814;2023-04-03T07:25:54;12.77;;;2.95;;
64339;SDS011;63709;53.258;-8.814;2023-04-03T07:28:21;4.95;;;1.98;;
64339;SDS011;63709;53.258;-8.814;2023-04-03T07:30:50;4.05;;;1.90;;
64339;SDS011;63709;53.258;-8.814;2023-04-03T07:33:19;2.78;;;1.50;;
64339;SDS011;63709;53.258;-8.814;2023-04-03T07:35:46;4.50;;;1.70;;
64339;SDS011;63709;53.258;-8.814;2023-04-03T07:38:12;7.90;;;2.90;;
64339;SDS011;63709;53.258;-8.814;2023-04-03T07:40:39;3.58;;;1.35;;
64339;SDS011;63709;53.258;-8.814;2023-04-03T07:43:05;6.38;;;1.85;;
64339;SDS011;63709;53.258;-8.814;2023-04-03T07:45:34;3.97;;;1.63;;
64339;SDS011;63709;53.258;-8.814;2023-04-03T07:48:00;5.32;;;1.70;;
64339;SDS011;63709;53.258;-8.814;2023-04-03T07:50:27;4.57;;;1.63;;
64339;SDS011;63709;53.258;-8.814;2023-04-03T07:52:53;3.80;;;1.95;;
64339;SDS011;63709;53.258;-8.814;2023-04-03T07:55:22;4.07;;;1.77;;
64339;SDS011;63709;53.258;-8.814;2023-04-03T07:57:48;2.45;;;1.40;;
64339;SDS011;63709;53.258;-8.814;2023-04-03T08:00:14;8.15;;;2.00;;
64339;SDS011;63709;53.258;-8.814;2023-04-03T08:02:42;3.95;;;1.83;;
64339;SDS011;63709;53.258;-8.814;2023-04-03T08:05:09;4.05;;;1.50;;
64339;SDS011;63709;53.258;-8.814;2023-04-03T08:07:37;4.30;;;1.83;;
64339;SDS011;63709;53.258;-8.814;2023-04-03T08:10:03;7.15;;;1.90;;
64339;SDS011;63709;53.258;-8.814;2023-04-03T08:12:29;9.80;;;1.60;;
64339;SDS011;63709;53.258;-8.814;2023-04-03T08:14:57;6.68;;;1.92;;
64339;SDS011;63709;53.258;-8.814;2023-04-03T08:17:25;6.13;;;1.20;;
64339;SDS011;63709;53.258;-8.814;2023-04-03T08:19:51;4.13;;;1.67;;
64339;SDS011;63709;53.258;-8.814;2023-04-03T08:22:18;4.25;;;1.27;;
64339;SDS011;63709;53.258;-8.814;2023-04-03T08:24:43;3.53;;;1.40;;
64339;SDS011;63709;53.258;-8.814;2023-04-03T08:27:10;4.35;;;1.40;;
64339;SDS011;63709;53.258;-8.814;2023-04-03T08:29:36;3.67;;;1.60;;
64339;SDS011;63709;53.258;-8.814;2023-04-03T08:32:04;3.15;;;1.20;;
64339;SDS011;63709;53.258;-8.814;2023-04-03T08:34:31;3.28;;;1.40;;
64339;SDS011;63709;53.258;-8.814;2023-04-03T08:37:00;2.67;;;1.40;;
64339;SDS011;63709;53.258;-8.814;2023-04-03T08:39:26;4.25;;;1.30;;
64339;SDS011;63709;53.258;-8.814;2023-04-03T08:50:00;2.08;;;1.33;;
64339;SDS011;63709;53.258;-8.814;2023-04-03T08:52:42;4.15;;;1.52;;
64339;SDS011;63709;53.258;-8.814;2023-04-03T08:55:19;6.60;;;1.98;;
64339;SDS011;63709;53.258;-8.814;2023-04-03T08:57:52;3.75;;;1.40;;
64339;SDS011;63709;53.258;-8.814;2023-04-03T09:00:34;3.95;;;1.27;;
64339;SDS011;63709;53.258;-8.814;2023-04-03T09:03:12;4.80;;;1.27;;
64339;SDS011;63709;53.258;-8.814;2023-04-03T09:08:37;3.47;;;1.50;;
64339;SDS011;63709;53.258;-8.814;2023-04-03T09:16:28;4.45;;;1.30;;
64339;SDS011;63709;53.258;-8.814;2023-04-03T09:19:39;5.28;;;1.83;;
64339;SDS011;63709;53.258;-8.814;2023-04-03T09:22:07;4.60;;;2.10;;
64339;SDS011;63709;53.258;-8.814;2023-04-03T09:24:43;7.00;;;1.20;;
64339;SDS011;63709;53.258;-8.814;2023-04-03T09:27:12;2.47;;;1.20;;
64339;SDS011;63709;53.258;-8.814;2023-04-03T09:29:39;3.75;;;1.70;;
64339;SDS011;63709;53.258;-8.814;2023-04-03T09:32:53;5.68;;;1.70;;
64339;SDS011;63709;53.258;-8.814;2023-04-03T09:35:04;4.15;;;1.30;;
64339;SDS011;63709;53.258;-8.814;2023-04-03T09:37:44;3.92;;;1.33;;
64339;SDS011;63709;53.258;-8.814;2023-04-03T09:40:30;4.45;;;1.60;;
64339;SDS011;63709;53.258;-8.814;2023-04-03T09:43:01;5.30;;;1.33;;
64339;SDS011;63709;53.258;-8.814;2023-04-03T09:45:44;4.30;;;1.45;;
64339;SDS011;63709;53.258;-8.814;2023-04-03T09:51:00;5.38;;;1.73;;
64339;SDS011;63709;53.258;-8.814;2023-04-03T09:58:50;3.55;;;1.10;;
64339;SDS011;63709;53.258;-8.814;2023-04-03T10:06:54;4.40;;;1.30;;
64339;SDS011;63709;53.258;-8.814;2023-04-03T10:09:22;3.88;;;1.33;;
64339;SDS011;63709;53.258;-8.814;2023-04-03T10:12:10;3.60;;;1.45;;
64339;SDS011;63709;53.258;-8.814;2023-04-03T10:14:38;4.28;;;1.33;;
64339;SDS011;63709;53.258;-8.814;2023-04-03T10:17:12;5.63;;;1.67;;
64339;SDS011;63709;53.258;-8.814;2023-04-03T10:22:44;2.90;;;1.38;;
64339;SDS011;63709;53.258;-8.814;2023-04-03T10:25:54;3.50;;;1.38;;
64339;SDS011;63709;53.258;-8.814;2023-04-03T10:28:31;3.65;;;1.48;;
64339;SDS011;63709;53.258;-8.814;2023-04-03T10:36:48;5.43;;;1.40;;
64339;SDS011;63709;53.258;-8.814;2023-04-03T10:42:18;2.75;;;1.63;;
64339;SDS011;63709;53.258;-8.814;2023-04-03T10:53:35;8.05;;;1.70;;
64339;SDS011;63709;53.258;-8.814;2023-04-03T10:58:58;3.88;;;1.48;;
64339;SDS011;63709;53.258;-8.814;2023-04-03T11:02:00;4.55;;;1.73;;
64339;SDS011;63709;53.258;-8.814;2023-04-03T11:04:34;3.15;;;1.30;;
64339;SDS011;63709;53.258;-8.814;2023-04-03T11:07:17;5.43;;;1.60;;
64339;SDS011;63709;53.258;-8.814;2023-04-03T11:09:44;4.40;;;1.30;;
64339;SDS011;63709;53.258;-8.814;2023-04-03T11:14:52;5.00;;;1.38;;
64339;SDS011;63709;53.258;-8.814;2023-04-03T11:17:23;3.00;;;1.52;;
64339;SDS011;63709;53.258;-8.814;2023-04-03T11:22:45;7.20;;;1.73;;
64339;SDS011;63709;53.258;-8.814;2023-04-03T11:25:23;2.88;;;1.45;;
64339;SDS011;63709;53.258;-8.814;2023-04-03T11:27:57;7.90;;;2.20;;
64339;SDS011;63709;53.258;-8.814;2023-04-03T11:35:45;7.53;;;1.77;;
64339;SDS011;63709;53.258;-8.814;2023-04-03T11:38:23;3.38;;;1.40;;
64339;SDS011;63709;53.258;-8.814;2023-04-03T11:50:54;5.88;;;1.88;;
64339;SDS011;63709;53.258;-8.814;2023-04-03T11:56:01;7.93;;;1.45;;
64339;SDS011;63709;53.258;-8.814;2023-04-03T11:59:14;2.38;;;1.33;;
64339;SDS011;63709;53.258;-8.814;2023-04-03T12:01:43;3.83;;;1.42;;
64339;SDS011;63709;53.258;-8.814;2023-04-03T12:04:12;2.78;;;1.17;;
64339;SDS011;63709;53.258;-8.814;2023-04-03T12:11:52;3.63;;;1.60;;
64339;SDS011;63709;53.258;-8.814;2023-04-03T12:14:22;5.35;;;1.75;;
64339;SDS011;63709;53.258;-8.814;2023-04-03T12:16:50;5.55;;;1.58;;
64339;SDS011;63709;53.258;-8.814;2023-04-03T12:24:26;4.70;;;1.77;;
64339;SDS011;63709;53.258;-8.814;2023-04-03T12:48:48;4.18;;;1.30;;
64339;SDS011;63709;53.258;-8.814;2023-04-03T12:51:28;4.13;;;1.23;;
64339;SDS011;63709;53.258;-8.814;2023-04-03T12:54:44;4.40;;;1.17;;
64339;SDS011;63709;53.258;-8.814;2023-04-03T12:57:09;8.80;;;3.63;;
64339;SDS011;63709;53.258;-8.814;2023-04-03T12:59:35;6.53;;;1.52;;
64339;SDS011;63709;53.258;-8.814;2023-04-03T13:02:02;7.97;;;2.72;;
64339;SDS011;63709;53.258;-8.814;2023-04-03T13:04:28;10.07;;;1.95;;
64339;SDS011;63709;53.258;-8.814;2023-04-03T13:06:56;4.68;;;1.48;;
64339;SDS011;63709;53.258;-8.814;2023-04-03T13:09:24;3.70;;;1.63;;
64339;SDS011;63709;53.258;-8.814;2023-04-03T13:12:14;8.60;;;1.90;;
64339;SDS011;63709;53.258;-8.814;2023-04-03T13:14:39;3.75;;;1.73;;
64339;SDS011;63709;53.258;-8.814;2023-04-03T13:17:14;3.50;;;1.70;;
64339;SDS011;63709;53.258;-8.814;2023-04-03T13:19:41;4.55;;;1.83;;
64339;SDS011;63709;53.258;-8.814;2023-04-03T13:22:23;3.47;;;1.35;;
64339;SDS011;63709;53.258;-8.814;2023-04-03T13:24:55;9.63;;;1.83;;
64339;SDS011;63709;53.258;-8.814;2023-04-03T13:27:24;7.18;;;1.92;;
64339;SDS011;63709;53.258;-8.814;2023-04-03T13:29:52;3.08;;;1.42;;
64339;SDS011;63709;53.258;-8.814;2023-04-03T13:32:21;4.45;;;1.40;;
64339;SDS011;63709;53.258;-8.814;2023-04-03T13:34:50;6.63;;;1.30;;
64339;SDS011;63709;53.258;-8.814;2023-04-03T13:37:20;8.05;;;1.85;;
64339;SDS011;63709;53.258;-8.814;2023-04-03T13:39:59;5.32;;;1.80;;
64339;SDS011;63709;53.258;-8.814;2023-04-03T13:42:32;3.95;;;1.52;;
64339;SDS011;63709;53.258;-8.814;2023-04-03T13:45:35;6.15;;;1.80;;
64339;SDS011;63709;53.258;-8.814;2023-04-03T13:48:09;5.78;;;1.60;;
64339;SDS011;63709;53.258;-8.814;2023-04-03T13:51:00;4.97;;;1.60;;
64339;SDS011;63709;53.258;-8.814;2023-04-03T13:55:59;5.38;;;1.67;;
64339;SDS011;63709;53.258;-8.814;2023-04-03T13:58:28;5.97;;;1.45;;
64339;SDS011;63709;53.258;-8.814;2023-04-03T14:01:17;5.63;;;1.75;;
64339;SDS011;63709;53.258;-8.814;2023-04-03T14:04:00;5.80;;;1.23;;
64339;SDS011;63709;53.258;-8.814;2023-04-03T14:06:35;3.33;;;1.27;;
64339;SDS011;63709;53.258;-8.814;2023-04-03T14:09:01;6.50;;;2.17;;
64339;SDS011;63709;53.258;-8.814;2023-04-03T14:11:29;3.50;;;1.50;;
64339;SDS011;63709;53.258;-8.814;2023-04-03T14:13:57;8.00;;;1.65;;
64339;SDS011;63709;53.258;-8.814;2023-04-03T14:16:29;7.70;;;2.25;;
64339;SDS011;63709;53.258;-8.814;2023-04-03T14:18:58;5.13;;;1.88;;
64339;SDS011;63709;53.258;-8.814;2023-04-03T14:21:24;7.90;;;1.90;;
64339;SDS011;63709;53.258;-8.814;2023-04-03T14:23:50;7.10;;;2.00;;
64339;SDS011;63709;53.258;-8.814;2023-04-03T14:26:20;9.60;;;2.35;;
64339;SDS011;63709;53.258;-8.814;2023-04-03T14:28:49;6.57;;;1.90;;
64339;SDS011;63709;53.258;-8.814;2023-04-03T14:31:17;5.13;;;2.33;;
64339;SDS011;63709;53.258;-8.814;2023-04-03T14:33:44;7.25;;;1.92;;
64339;SDS011;63709;53.258;-8.814;2023-04-03T14:38:39;8.13;;;1.83;;
64339;SDS011;63709;53.258;-8.814;2023-04-03T14:41:07;6.53;;;2.40;;
64339;SDS011;63709;53.258;-8.814;2023-04-03T14:43:33;3.75;;;1.70;;
64339;SDS011;63709;53.258;-8.814;2023-04-03T14:45:58;8.63;;;2.08;;
64339;SDS011;63709;53.258;-8.814;2023-04-03T14:51:05;5.28;;;1.70;;
64339;SDS011;63709;53.258;-8.814;2023-04-03T14:53:32;7.63;;;1.90;;
64339;SDS011;63709;53.258;-8.814;2023-04-03T14:55:57;8.38;;;2.03;;
64339;SDS011;63709;53.258;-8.814;2023-04-03T14:58:23;5.82;;;2.08;;
64339;SDS011;63709;53.258;-8.814;2023-04-03T15:00:49;9.68;;;2.00;;
64339;SDS011;63709;53.258;-8.814;2023-04-03T15:03:16;5.20;;;2.08;;
64339;SDS011;63709;53.258;-8.814;2023-04-03T15:05:44;6.75;;;2.38;;
64339;SDS011;63709;53.258;-8.814;2023-04-03T15:08:16;7.57;;;2.10;;
64339;SDS011;63709;53.258;-8.814;2023-04-03T15:10:47;20.02;;;3.05;;
64339;SDS011;63709;53.258;-8.814;2023-04-03T15:13:13;5.70;;;1.98;;
64339;SDS011;63709;53.258;-8.814;2023-04-03T15:15:39;7.93;;;2.20;;
64339;SDS011;63709;53.258;-8.814;2023-04-03T15:18:05;5.32;;;1.95;;
64339;SDS011;63709;53.258;-8.814;2023-04-03T15:20:31;4.18;;;1.83;;
64339;SDS011;63709;53.258;-8.814;2023-04-03T15:22:59;4.32;;;2.00;;
64339;SDS011;63709;53.258;-8.814;2023-04-03T15:25:26;7.13;;;2.10;;
64339;SDS011;63709;53.258;-8.814;2023-04-03T15:27:56;5.75;;;2.30;;
64339;SDS011;63709;53.258;-8.814;2023-04-03T15:30:22;6.20;;;2.47;;
64339;SDS011;63709;53.258;-8.814;2023-04-03T15:32:50;5.13;;;2.58;;
64339;SDS011;63709;53.258;-8.814;2023-04-03T15:35:16;7.38;;;2.30;;
64339;SDS011;63709;53.258;-8.814;2023-04-03T15:37:42;4.47;;;2.20;;
64339;SDS011;63709;53.258;-8.814;2023-04-03T15:40:09;5.93;;;2.40;;
64339;SDS011;63709;53.258;-8.814;2023-04-03T15:42:36;6.00;;;2.50;;
64339;SDS011;63709;53.258;-8.814;2023-04-03T15:45:02;7.25;;;2.45;;
64339;SDS011;63709;53.258;-8.814;2023-04-03T15:47:29;6.47;;;2.45;;
64339;SDS011;63709;53.258;-8.814;2023-04-03T15:49:55;6.38;;;2.55;;
64339;SDS011;63709;53.258;-8.814;2023-04-03T15:54:48;7.10;;;2.00;;
64339;SDS011;63709;53.258;-8.814;2023-04-03T15:57:13;5.15;;;2.50;;
64339;SDS011;63709;53.258;-8.814;2023-04-03T15:59:39;5.68;;;2.40;;
64339;SDS011;63709;53.258;-8.814;2023-04-03T16:02:06;5.63;;;2.35;;
64339;SDS011;63709;53.258;-8.814;2023-04-03T16:04:35;6.60;;;3.10;;
64339;SDS011;63709;53.258;-8.814;2023-04-03T16:07:03;10.30;;;2.90;;
64339;SDS011;63709;53.258;-8.814;2023-04-03T16:09:31;6.20;;;2.90;;
64339;SDS011;63709;53.258;-8.814;2023-04-03T16:11:57;7.93;;;2.83;;
64339;SDS011;63709;53.258;-8.814;2023-04-03T16:14:24;6.30;;;2.72;;
64339;SDS011;63709;53.258;-8.814;2023-04-03T16:16:50;6.32;;;2.50;;
64339;SDS011;63709;53.258;-8.814;2023-04-03T16:19:15;7.78;;;2.40;;
64339;SDS011;63709;53.258;-8.814;2023-04-03T16:21:41;3.08;;;2.03;;
64339;SDS011;63709;53.258;-8.814;2023-04-03T16:24:07;6.22;;;2.60;;
64339;SDS011;63709;53.258;-8.814;2023-04-03T16:26:34;5.80;;;2.67;;
64339;SDS011;63709;53.258;-8.814;2023-04-03T16:29:00;5.25;;;2.40;;
64339;SDS011;63709;53.258;-8.814;2023-04-03T16:31:26;9.35;;;3.58;;
64339;SDS011;63709;53.258;-8.814;2023-04-03T16:33:54;6.25;;;2.30;;
64339;SDS011;63709;53.258;-8.814;2023-04-03T16:36:20;4.50;;;2.40;;
64339;SDS011;63709;53.258;-8.814;2023-04-03T16:38:46;9.10;;;2.63;;
64339;SDS011;63709;53.258;-8.814;2023-04-03T16:41:11;8.18;;;2.88;;
64339;SDS011;63709;53.258;-8.814;2023-04-03T16:43:37;4.25;;;2.53;;
64339;SDS011;63709;53.258;-8.814;2023-04-03T16:46:03;6.15;;;2.78;;
64339;SDS011;63709;53.258;-8.814;2023-04-03T16:48:30;6.85;;;2.80;;
64339;SDS011;63709;53.258;-8.814;2023-04-03T16:50:56;8.30;;;2.85;;
64339;SDS011;63709;53.258;-8.814;2023-04-03T16:53:22;5.38;;;2.67;;
64339;SDS011;63709;53.258;-8.814;2023-04-03T16:55:49;8.57;;;2.80;;
64339;SDS011;63709;53.258;-8.814;2023-04-03T16:58:17;7.68;;;2.45;;
64339;SDS011;63709;53.258;-8.814;2023-04-03T17:00:43;9.45;;;3.10;;
64339;SDS011;63709;53.258;-8.814;2023-04-03T17:03:09;7.10;;;2.40;;
64339;SDS011;63709;53.258;-8.814;2023-04-03T17:05:35;9.02;;;2.92;;
64339;SDS011;63709;53.258;-8.814;2023-04-03T17:08:01;9.30;;;2.80;;
64339;SDS011;63709;53.258;-8.814;2023-04-03T17:10:28;11.50;;;3.35;;
64339;SDS011;63709;53.258;-8.814;2023-04-03T17:12:54;10.98;;;3.08;;